sensor_id;sensor_type;location;lat;lon;timestamp;pressure;altitude;pressure_sealevel;temperature;humidity
54556;BME280;57291;37.520;15.106;2023-04-19T00:01:19;101165.97;;;12.59;73.37
54556;BME280;57291;37.520;15.106;2023-04-19T00:03:46;101166.47;;;12.61;73.21
54556;BME280;57291;37.520;15.106;2023-04-19T00:06:14;101174.56;;;12.66;73.67
54556;BME280;57291;37.520;15.106;2023-04-19T00:08:42;101172.63;;;12.66;73.43
54556;BME280;57291;37.520;15.106;2023-04-19T00:11:10;101163.88;;;12.70;73.27
54556;BME280;57291;37.520;15.106;2023-04-19T00:13:37;101168.50;;;12.69;73.25
54556;BME280;57291;37.520;15.106;2023-04-19T00:16:04;101168.22;;;12.71;73.26
54556;BME280;57291;37.520;15.106;2023-04-19T00:18:31;101171.44;;;12.73;73.52
54556;BME280;57291;37.520;15.106;2023-04-19T00:20:59;101157.31;;;12.71;73.35
54556;BME280;57291;37.520;15.106;2023-04-19T00:23:26;101160.84;;;12.71;73.41
54556;BME280;57291;37.520;15.106;2023-04-19T00:25:53;101162.19;;;12.74;73.34
54556;BME280;57291;37.520;15.106;2023-04-19T00:28:21;101156.13;;;12.77;73.42
54556;BME280;57291;37.520;15.106;2023-04-19T00:30:48;101149.44;;;12.83;73.11
54556;BME280;57291;37.520;15.106;2023-04-19T00:33:15;101140.97;;;12.84;72.90
54556;BME280;57291;37.520;15.106;2023-04-19T00:35:43;101144.19;;;12.86;73.09
54556;BME280;57291;37.520;15.106;2023-04-19T00:38:11;101148.56;;;12.87;73.00
54556;BME280;57291;37.520;15.106;2023-04-19T00:40:39;101149.16;;;12.84;72.86
54556;BME280;57291;37.520;15.106;2023-04-19T00:43:06;101144.84;;;12.83;72.96
54556;BME280;57291;37.520;15.106;2023-04-19T00:45:34;101152.38;;;12.86;73.13
54556;BME280;57291;37.520;15.106;2023-04-19T00:48:02;101136.53;;;12.88;72.89
54556;BME280;57291;37.520;15.106;2023-04-19T00:50:30;101100.38;;;12.97;72.73
54556;BME280;57291;37.520;15.106;2023-04-19T00:52:57;101109.59;;;13.01;73.63
54556;BME280;57291;37.520;15.106;2023-04-19T00:55:24;101110.69;;;13.00;74.81
54556;BME280;57291;37.520;15.106;2023-04-19T00:57:52;101114.63;;;12.94;74.59
54556;BME280;57291;37.520;15.106;2023-04-19T01:00:20;101128.34;;;12.88;74.84
54556;BME280;57291;37.520;15.106;2023-04-19T01:02:47;101126.63;;;12.79;74.60
54556;BME280;57291;37.520;15.106;2023-04-19T01:05:17;101138.50;;;12.69;74.60
54556;BME280;57291;37.520;15.106;2023-04-19T01:07:45;101136.19;;;12.62;74.74
54556;BME280;57291;37.520;15.106;2023-04-19T01:10:13;101137.47;;;12.51;74.87
54556;BME280;57291;37.520;15.106;2023-04-19T01:12:41;101146.03;;;12.44;75.06
54556;BME280;57291;37.520;15.106;2023-04-19T01:15:09;101140.84;;;12.43;75.69
54556;BME280;57291;37.520;15.106;2023-04-19T01:17:37;101135.72;;;12.41;75.91
54556;BME280;57291;37.520;15.106;2023-04-19T01:20:05;101131.38;;;12.40;76.18
54556;BME280;57291;37.520;15.106;2023-04-19T01:22:34;101134.91;;;12.41;76.48
54556;BME280;57291;37.520;15.106;2023-04-19T01:25:04;101133.56;;;12.38;76.27
54556;BME280;57291;37.520;15.106;2023-04-19T01:27:31;101134.38;;;12.39;76.83
54556;BME280;57291;37.520;15.106;2023-04-19T01:29:58;101129.47;;;12.41;76.61
54556;BME280;57291;37.520;15.106;2023-04-19T01:32:25;101125.94;;;12.40;75.62
54556;BME280;57291;37.520;15.106;2023-04-19T01:34:54;101132.78;;;12.38;74.22
54556;BME280;57291;37.520;15.106;2023-04-19T01:37:22;101126.00;;;12.35;72.96
54556;BME280;57291;37.520;15.106;2023-04-19T01:39:49;101128.28;;;12.28;72.77
54556;BME280;57291;37.520;15.106;2023-04-19T01:42:16;101132.72;;;12.24;72.70
54556;BME280;57291;37.520;15.106;2023-04-19T01:44:43;101133.81;;;12.23;72.12
54556;BME280;57291;37.520;15.106;2023-04-19T01:47:10;101131.59;;;12.25;72.26
54556;BME280;57291;37.520;15.106;2023-04-19T01:49:38;101124.75;;;12.28;71.89
54556;BME280;57291;37.520;15.106;2023-04-19T01:52:07;101120.91;;;12.29;72.15
54556;BME280;57291;37.520;15.106;2023-04-19T01:54:34;101121.72;;;12.29;71.72
54556;BME280;57291;37.520;15.106;2023-04-19T01:57:01;101129.63;;;12.31;71.69
54556;BME280;57291;37.520;15.106;2023-04-19T01:59:28;101124.16;;;12.31;71.38
54556;BME280;57291;37.520;15.106;2023-04-19T02:01:55;101125.03;;;12.26;71.10
54556;BME280;57291;37.520;15.106;2023-04-19T02:04:23;101138.19;;;12.24;70.79
54556;BME280;57291;37.520;15.106;2023-04-19T02:06:50;101131.19;;;12.18;70.88
54556;BME280;57291;37.520;15.106;2023-04-19T02:09:17;101124.47;;;12.10;71.33
54556;BME280;57291;37.520;15.106;2023-04-19T02:11:45;101124.25;;;12.07;71.41
54556;BME280;57291;37.520;15.106;2023-04-19T02:14:12;101125.94;;;12.03;69.86
54556;BME280;57291;37.520;15.106;2023-04-19T02:16:40;101129.25;;;12.00;68.43
54556;BME280;57291;37.520;15.106;2023-04-19T02:19:07;101127.94;;;11.97;68.62
54556;BME280;57291;37.520;15.106;2023-04-19T02:21:34;101128.81;;;11.92;68.89
54556;BME280;57291;37.520;15.106;2023-04-19T02:24:01;101126.69;;;11.89;68.94
54556;BME280;57291;37.520;15.106;2023-04-19T02:26:30;101123.16;;;11.89;69.32
54556;BME280;57291;37.520;15.106;2023-04-19T02:28:57;101122.34;;;11.88;70.05
54556;BME280;57291;37.520;15.106;2023-04-19T02:31:24;101119.53;;;11.93;71.18
54556;BME280;57291;37.520;15.106;2023-04-19T02:33:51;101116.81;;;11.93;71.38
54556;BME280;57291;37.520;15.106;2023-04-19T02:36:18;101111.91;;;11.95;72.01
54556;BME280;57291;37.520;15.106;2023-04-19T02:38:45;101109.22;;;11.90;72.37
54556;BME280;57291;37.520;15.106;2023-04-19T02:41:12;101112.28;;;11.84;72.32
54556;BME280;57291;37.520;15.106;2023-04-19T02:43:40;101118.63;;;11.79;72.56
54556;BME280;57291;37.520;15.106;2023-04-19T02:46:07;101114.56;;;11.77;71.38
54556;BME280;57291;37.520;15.106;2023-04-19T02:48:34;101117.38;;;11.71;71.07
54556;BME280;57291;37.520;15.106;2023-04-19T02:51:01;101105.66;;;11.71;71.49
54556;BME280;57291;37.520;15.106;2023-04-19T02:53:28;101109.50;;;11.70;71.67
54556;BME280;57291;37.520;15.106;2023-04-19T02:55:56;101109.81;;;11.68;72.08
54556;BME280;57291;37.520;15.106;2023-04-19T02:58:23;101119.94;;;11.63;72.24
54556;BME280;57291;37.520;15.106;2023-04-19T03:00:58;101120.84;;;11.58;72.47
54556;BME280;57291;37.520;15.106;2023-04-19T03:03:26;101110.75;;;11.59;72.91
54556;BME280;57291;37.520;15.106;2023-04-19T03:05:53;101113.16;;;11.60;73.77
54556;BME280;57291;37.520;15.106;2023-04-19T03:08:21;101105.31;;;11.59;73.84
54556;BME280;57291;37.520;15.106;2023-04-19T03:10:48;101112.41;;;11.55;73.89
54556;BME280;57291;37.520;15.106;2023-04-19T03:13:15;101126.59;;;11.51;74.32
54556;BME280;57291;37.520;15.106;2023-04-19T03:15:42;101129.81;;;11.59;75.02
54556;BME280;57291;37.520;15.106;2023-04-19T03:18:10;101121.56;;;11.64;76.02
54556;BME280;57291;37.520;15.106;2023-04-19T03:20:40;101128.63;;;11.65;75.90
54556;BME280;57291;37.520;15.106;2023-04-19T03:23:08;101128.91;;;11.63;76.17
54556;BME280;57291;37.520;15.106;2023-04-19T03:25:35;101125.06;;;11.64;76.37
54556;BME280;57291;37.520;15.106;2023-04-19T03:28:15;101119.63;;;11.64;76.27
54556;BME280;57291;37.520;15.106;2023-04-19T03:31:02;101120.75;;;11.63;76.64
54556;BME280;57291;37.520;15.106;2023-04-19T03:33:30;101123.78;;;11.62;76.65
54556;BME280;57291;37.520;15.106;2023-04-19T03:35:57;101119.41;;;11.61;76.70
54556;BME280;57291;37.520;15.106;2023-04-19T03:38:24;101119.13;;;11.62;76.78
54556;BME280;57291;37.520;15.106;2023-04-19T03:40:52;101119.34;;;11.66;76.83
54556;BME280;57291;37.520;15.106;2023-04-19T03:43:19;101114.19;;;11.64;76.47
54556;BME280;57291;37.520;15.106;2023-04-19T03:45:47;101118.03;;;11.63;76.63
54556;BME280;57291;37.520;15.106;2023-04-19T03:48:14;101120.00;;;11.58;76.76
54556;BME280;57291;37.520;15.106;2023-04-19T03:50:41;101125.16;;;11.59;76.97
54556;BME280;57291;37.520;15.106;2023-04-19T03:53:12;101121.06;;;11.62;76.75
54556;BME280;57291;37.520;15.106;2023-04-19T03:55:40;101118.91;;;11.59;76.69
54556;BME280;57291;37.520;15.106;2023-04-19T03:58:07;101115.06;;;11.60;76.94
54556;BME280;57291;37.520;15.106;2023-04-19T04:00:43;101113.09;;;11.65;76.63
54556;BME280;57291;37.520;15.106;2023-04-19T04:03:13;101116.63;;;11.66;76.47
54556;BME280;57291;37.520;15.106;2023-04-19T04:05:40;101122.88;;;11.66;76.76
54556;BME280;57291;37.520;15.106;2023-04-19T04:08:08;101121.50;;;11.69;76.52
54556;BME280;57291;37.520;15.106;2023-04-19T04:10:35;101117.06;;;11.73;76.13
54556;BME280;57291;37.520;15.106;2023-04-19T04:13:03;101113.81;;;11.71;75.92
54556;BME280;57291;37.520;15.106;2023-04-19T04:16:11;101110.06;;;11.67;76.08
54556;BME280;57291;37.520;15.106;2023-04-19T04:18:39;101116.09;;;11.64;75.96
54556;BME280;57291;37.520;15.106;2023-04-19T04:21:09;101115.53;;;11.67;76.09
54556;BME280;57291;37.520;15.106;2023-04-19T04:23:39;101119.00;;;11.72;75.99
54556;BME280;57291;37.520;15.106;2023-04-19T04:26:12;101120.25;;;11.80;75.43
54556;BME280;57291;37.520;15.106;2023-04-19T04:28:52;101120.25;;;11.80;75.13
54556;BME280;57291;37.520;15.106;2023-04-19T04:31:19;101131.72;;;11.77;75.11
54556;BME280;57291;37.520;15.106;2023-04-19T04:33:47;101131.13;;;11.80;75.26
54556;BME280;57291;37.520;15.106;2023-04-19T04:36:17;101127.81;;;11.88;74.80
54556;BME280;57291;37.520;15.106;2023-04-19T04:38:46;101125.88;;;11.89;74.71
54556;BME280;57291;37.520;15.106;2023-04-19T04:41:13;101136.41;;;11.95;74.83
54556;BME280;57291;37.520;15.106;2023-04-19T04:43:41;101143.03;;;12.08;74.92
54556;BME280;57291;37.520;15.106;2023-04-19T04:46:10;101140.66;;;12.20;74.85
54556;BME280;57291;37.520;15.106;2023-04-19T04:48:40;101142.31;;;12.54;75.53
54556;BME280;57291;37.520;15.106;2023-04-19T04:51:07;101141.28;;;13.29;74.75
54556;BME280;57291;37.520;15.106;2023-04-19T04:53:35;101151.66;;;13.55;72.30
54556;BME280;57291;37.520;15.106;2023-04-19T04:56:04;101144.09;;;14.02;70.92
54556;BME280;57291;37.520;15.106;2023-04-19T04:58:32;101145.88;;;15.28;68.80
54556;BME280;57291;37.520;15.106;2023-04-19T05:01:05;101160.25;;;16.60;64.39
54556;BME280;57291;37.520;15.106;2023-04-19T05:03:37;101152.59;;;17.98;60.48
54556;BME280;57291;37.520;15.106;2023-04-19T05:06:08;101148.59;;;18.49;54.63
54556;BME280;57291;37.520;15.106;2023-04-19T05:08:35;101141.53;;;19.55;51.29
54556;BME280;57291;37.520;15.106;2023-04-19T05:11:25;101131.25;;;20.05;50.95
54556;BME280;57291;37.520;15.106;2023-04-19T05:13:54;101147.69;;;20.85;49.18
54556;BME280;57291;37.520;15.106;2023-04-19T05:16:22;101151.09;;;20.95;45.17
54556;BME280;57291;37.520;15.106;2023-04-19T05:18:49;101152.00;;;21.46;45.23
54556;BME280;57291;37.520;15.106;2023-04-19T05:21:27;101143.28;;;21.80;42.87
54556;BME280;57291;37.520;15.106;2023-04-19T05:23:54;101157.13;;;22.34;41.90
54556;BME280;57291;37.520;15.106;2023-04-19T05:26:22;101157.38;;;22.68;41.16
54556;BME280;57291;37.520;15.106;2023-04-19T05:28:50;101165.13;;;23.24;40.84
54556;BME280;57291;37.520;15.106;2023-04-19T05:31:28;101164.91;;;24.16;38.79
54556;BME280;57291;37.520;15.106;2023-04-19T05:34:11;101176.50;;;24.55;38.12
54556;BME280;57291;37.520;15.106;2023-04-19T05:36:38;101172.13;;;25.36;37.19
54556;BME280;57291;37.520;15.106;2023-04-19T05:39:06;101170.03;;;25.74;35.23
54556;BME280;57291;37.520;15.106;2023-04-19T05:41:33;101172.16;;;25.99;35.46
54556;BME280;57291;37.520;15.106;2023-04-19T05:44:00;101165.56;;;26.35;34.11
54556;BME280;57291;37.520;15.106;2023-04-19T05:46:27;101164.06;;;26.52;33.70
54556;BME280;57291;37.520;15.106;2023-04-19T05:48:56;101164.91;;;26.78;33.08
54556;BME280;57291;37.520;15.106;2023-04-19T05:51:59;101167.38;;;27.22;32.60
54556;BME280;57291;37.520;15.106;2023-04-19T05:54:38;101163.31;;;27.77;32.18
54556;BME280;57291;37.520;15.106;2023-04-19T05:57:05;101160.03;;;28.14;31.41
54556;BME280;57291;37.520;15.106;2023-04-19T05:59:32;101165.50;;;28.39;29.70
54556;BME280;57291;37.520;15.106;2023-04-19T06:02:00;101163.81;;;28.60;30.00
54556;BME280;57291;37.520;15.106;2023-04-19T06:04:28;101161.03;;;28.60;29.83
54556;BME280;57291;37.520;15.106;2023-04-19T06:06:55;101162.34;;;28.34;28.22
54556;BME280;57291;37.520;15.106;2023-04-19T06:09:22;101157.75;;;28.68;28.69
54556;BME280;57291;37.520;15.106;2023-04-19T06:11:49;101156.56;;;29.29;27.99
54556;BME280;57291;37.520;15.106;2023-04-19T06:14:17;101159.34;;;29.25;27.43
54556;BME280;57291;37.520;15.106;2023-04-19T06:16:45;101157.06;;;29.16;27.56
54556;BME280;57291;37.520;15.106;2023-04-19T06:19:12;101163.47;;;29.13;26.43
54556;BME280;57291;37.520;15.106;2023-04-19T06:21:40;101165.91;;;28.41;28.07
54556;BME280;57291;37.520;15.106;2023-04-19T06:24:08;101162.16;;;27.78;27.17
54556;BME280;57291;37.520;15.106;2023-04-19T06:26:35;101167.59;;;28.21;28.04
54556;BME280;57291;37.520;15.106;2023-04-19T06:29:02;101163.38;;;27.20;30.27
54556;BME280;57291;37.520;15.106;2023-04-19T06:31:30;101168.28;;;26.21;30.06
54556;BME280;57291;37.520;15.106;2023-04-19T06:33:57;101171.75;;;27.23;30.01
54556;BME280;57291;37.520;15.106;2023-04-19T06:36:24;101167.75;;;27.17;28.66
54556;BME280;57291;37.520;15.106;2023-04-19T06:38:51;101176.03;;;26.67;30.07
54556;BME280;57291;37.520;15.106;2023-04-19T06:41:18;101178.31;;;25.63;32.82
54556;BME280;57291;37.520;15.106;2023-04-19T06:43:45;101185.41;;;25.57;32.17
54556;BME280;57291;37.520;15.106;2023-04-19T06:46:12;101185.66;;;25.34;32.46
54556;BME280;57291;37.520;15.106;2023-04-19T06:48:40;101181.19;;;25.26;33.00
54556;BME280;57291;37.520;15.106;2023-04-19T06:51:07;101180.53;;;24.99;33.62
54556;BME280;57291;37.520;15.106;2023-04-19T06:53:35;101183.06;;;24.74;34.43
54556;BME280;57291;37.520;15.106;2023-04-19T06:56:03;101193.63;;;24.61;34.95
54556;BME280;57291;37.520;15.106;2023-04-19T06:58:32;101178.44;;;24.21;34.82
54556;BME280;57291;37.520;15.106;2023-04-19T07:01:04;101191.69;;;23.75;36.42
54556;BME280;57291;37.520;15.106;2023-04-19T07:03:31;101180.31;;;23.83;36.59
54556;BME280;57291;37.520;15.106;2023-04-19T07:05:59;101184.44;;;23.93;35.49
54556;BME280;57291;37.520;15.106;2023-04-19T07:08:27;101186.72;;;23.87;36.40
54556;BME280;57291;37.520;15.106;2023-04-19T07:11:14;101190.38;;;23.19;36.66
54556;BME280;57291;37.520;15.106;2023-04-19T07:13:41;101196.44;;;23.74;37.63
54556;BME280;57291;37.520;15.106;2023-04-19T07:16:08;101189.88;;;23.86;36.82
54556;BME280;57291;37.520;15.106;2023-04-19T07:18:35;101199.16;;;23.97;38.05
54556;BME280;57291;37.520;15.106;2023-04-19T07:21:02;101204.41;;;24.02;38.33
54556;BME280;57291;37.520;15.106;2023-04-19T07:23:30;101200.75;;;23.72;38.75
54556;BME280;57291;37.520;15.106;2023-04-19T07:25:57;101205.94;;;24.30;37.04
54556;BME280;57291;37.520;15.106;2023-04-19T07:28:24;101210.25;;;24.27;36.94
54556;BME280;57291;37.520;15.106;2023-04-19T07:30:51;101209.81;;;23.95;38.26
54556;BME280;57291;37.520;15.106;2023-04-19T07:33:18;101220.00;;;23.38;39.02
54556;BME280;57291;37.520;15.106;2023-04-19T07:35:46;101215.03;;;23.24;39.68
54556;BME280;57291;37.520;15.106;2023-04-19T07:38:13;101216.56;;;23.22;40.08
54556;BME280;57291;37.520;15.106;2023-04-19T07:40:40;101220.88;;;23.42;41.89
54556;BME280;57291;37.520;15.106;2023-04-19T07:43:07;101230.66;;;23.36;41.18
54556;BME280;57291;37.520;15.106;2023-04-19T07:45:34;101228.25;;;23.57;39.92
54556;BME280;57291;37.520;15.106;2023-04-19T07:48:02;101226.72;;;23.60;39.52
54556;BME280;57291;37.520;15.106;2023-04-19T07:50:29;101236.22;;;23.13;40.92
54556;BME280;57291;37.520;15.106;2023-04-19T07:52:57;101238.00;;;23.25;40.75
54556;BME280;57291;37.520;15.106;2023-04-19T07:55:24;101237.06;;;22.94;41.54
54556;BME280;57291;37.520;15.106;2023-04-19T07:57:51;101236.03;;;23.02;40.88
54556;BME280;57291;37.520;15.106;2023-04-19T08:00:18;101235.34;;;24.04;38.62
54556;BME280;57291;37.520;15.106;2023-04-19T08:02:48;101233.03;;;24.40;37.92
54556;BME280;57291;37.520;15.106;2023-04-19T08:05:15;101234.13;;;24.59;37.71
54556;BME280;57291;37.520;15.106;2023-04-19T08:07:44;101239.94;;;24.20;38.38
54556;BME280;57291;37.520;15.106;2023-04-19T08:10:11;101234.59;;;23.81;38.56
54556;BME280;57291;37.520;15.106;2023-04-19T08:12:39;101235.72;;;23.53;40.53
54556;BME280;57291;37.520;15.106;2023-04-19T08:15:26;101239.72;;;23.56;39.86
54556;BME280;57291;37.520;15.106;2023-04-19T08:17:56;101240.47;;;23.07;41.37
54556;BME280;57291;37.520;15.106;2023-04-19T08:20:23;101235.63;;;23.23;41.07
54556;BME280;57291;37.520;15.106;2023-04-19T08:22:50;101238.91;;;22.90;40.51
54556;BME280;57291;37.520;15.106;2023-04-19T08:25:17;101240.34;;;22.61;41.44
54556;BME280;57291;37.520;15.106;2023-04-19T08:27:44;101239.06;;;22.19;43.66
54556;BME280;57291;37.520;15.106;2023-04-19T08:30:12;101249.91;;;21.93;44.08
54556;BME280;57291;37.520;15.106;2023-04-19T08:32:39;101247.09;;;21.58;44.25
54556;BME280;57291;37.520;15.106;2023-04-19T08:35:07;101257.09;;;21.18;45.78
54556;BME280;57291;37.520;15.106;2023-04-19T08:37:34;101252.50;;;20.66;47.27
54556;BME280;57291;37.520;15.106;2023-04-19T08:40:02;101253.53;;;20.21;48.54
54556;BME280;57291;37.520;15.106;2023-04-19T08:42:30;101252.50;;;20.13;49.23
54556;BME280;57291;37.520;15.106;2023-04-19T08:45:03;101252.06;;;19.87;48.58
54556;BME280;57291;37.520;15.106;2023-04-19T08:47:35;101250.75;;;19.35;50.15
54556;BME280;57291;37.520;15.106;2023-04-19T08:50:14;101259.31;;;18.76;51.56
54556;BME280;57291;37.520;15.106;2023-04-19T08:52:59;101255.06;;;18.37;53.10
54556;BME280;57291;37.520;15.106;2023-04-19T08:55:46;101251.78;;;17.93;53.83
54556;BME280;57291;37.520;15.106;2023-04-19T08:58:34;101254.59;;;17.75;55.41
54556;BME280;57291;37.520;15.106;2023-04-19T09:01:21;101249.81;;;17.64;56.35
54556;BME280;57291;37.520;15.106;2023-04-19T09:04:05;101254.53;;;17.46;56.28
54556;BME280;57291;37.520;15.106;2023-04-19T09:06:54;101254.56;;;17.37;57.43
54556;BME280;57291;37.520;15.106;2023-04-19T09:09:26;101256.97;;;17.47;57.20
54556;BME280;57291;37.520;15.106;2023-04-19T09:12:16;101252.59;;;17.55;57.27
54556;BME280;57291;37.520;15.106;2023-04-19T09:14:45;101257.78;;;17.48;57.78
54556;BME280;57291;37.520;15.106;2023-04-19T09:17:27;101258.28;;;17.41;57.99
54556;BME280;57291;37.520;15.106;2023-04-19T09:19:55;101254.53;;;17.54;56.85
54556;BME280;57291;37.520;15.106;2023-04-19T09:22:23;101247.31;;;17.41;57.96
54556;BME280;57291;37.520;15.106;2023-04-19T09:24:51;101249.94;;;17.20;58.61
54556;BME280;57291;37.520;15.106;2023-04-19T09:27:38;101247.69;;;17.14;59.45
54556;BME280;57291;37.520;15.106;2023-04-19T09:30:06;101249.91;;;17.29;59.64
54556;BME280;57291;37.520;15.106;2023-04-19T09:32:45;101242.88;;;17.02;60.65
54556;BME280;57291;37.520;15.106;2023-04-19T09:35:13;101239.00;;;17.11;60.84
54556;BME280;57291;37.520;15.106;2023-04-19T09:37:41;101242.03;;;17.10;60.63
54556;BME280;57291;37.520;15.106;2023-04-19T09:40:23;101242.69;;;17.07;60.99
54556;BME280;57291;37.520;15.106;2023-04-19T09:42:51;101244.00;;;17.01;61.39
54556;BME280;57291;37.520;15.106;2023-04-19T09:45:21;101242.84;;;17.10;61.12
54556;BME280;57291;37.520;15.106;2023-04-19T09:48:05;101243.19;;;17.09;61.91
54556;BME280;57291;37.520;15.106;2023-04-19T09:53:30;101239.03;;;16.77;62.71
54556;BME280;57291;37.520;15.106;2023-04-19T09:56:01;101238.19;;;16.94;63.89
54556;BME280;57291;37.520;15.106;2023-04-19T09:58:30;101238.00;;;17.07;62.69
54556;BME280;57291;37.520;15.106;2023-04-19T10:01:17;101239.16;;;16.98;63.80
54556;BME280;57291;37.520;15.106;2023-04-19T10:03:49;101240.78;;;16.90;63.51
54556;BME280;57291;37.520;15.106;2023-04-19T10:06:18;101241.59;;;16.99;63.44
54556;BME280;57291;37.520;15.106;2023-04-19T10:08:49;101229.97;;;16.94;63.64
54556;BME280;57291;37.520;15.106;2023-04-19T10:11:24;101237.34;;;17.10;64.27
54556;BME280;57291;37.520;15.106;2023-04-19T10:13:56;101230.50;;;17.34;63.58
54556;BME280;57291;37.520;15.106;2023-04-19T10:16:25;101225.84;;;17.34;63.26
54556;BME280;57291;37.520;15.106;2023-04-19T10:18:54;101231.13;;;17.40;61.96
54556;BME280;57291;37.520;15.106;2023-04-19T10:21:22;101222.66;;;17.15;64.32
54556;BME280;57291;37.520;15.106;2023-04-19T10:23:50;101225.59;;;17.01;65.58
54556;BME280;57291;37.520;15.106;2023-04-19T10:26:17;101227.72;;;16.87;65.57
54556;BME280;57291;37.520;15.106;2023-04-19T10:28:46;101229.84;;;16.81;65.08
54556;BME280;57291;37.520;15.106;2023-04-19T10:31:13;101221.72;;;16.68;66.40
54556;BME280;57291;37.520;15.106;2023-04-19T10:33:41;101221.28;;;16.83;66.78
54556;BME280;57291;37.520;15.106;2023-04-19T10:36:09;101219.47;;;16.96;66.42
54556;BME280;57291;37.520;15.106;2023-04-19T10:38:41;101217.25;;;17.36;65.63
54556;BME280;57291;37.520;15.106;2023-04-19T10:41:15;101218.00;;;17.54;65.16
54556;BME280;57291;37.520;15.106;2023-04-19T10:44:07;101187.81;;;17.75;64.24
54556;BME280;57291;37.520;15.106;2023-04-19T10:49:03;101196.28;;;17.23;64.93
54556;BME280;57291;37.520;15.106;2023-04-19T10:51:35;101195.81;;;17.21;65.67
54556;BME280;57291;37.520;15.106;2023-04-19T10:54:12;101187.59;;;17.50;65.40
54556;BME280;57291;37.520;15.106;2023-04-19T10:56:58;101183.31;;;17.70;63.92
54556;BME280;57291;37.520;15.106;2023-04-19T10:59:29;101186.38;;;17.69;63.86
54556;BME280;57291;37.520;15.106;2023-04-19T11:01:58;101186.66;;;17.76;63.49
54556;BME280;57291;37.520;15.106;2023-04-19T11:06:58;101186.13;;;17.53;60.52
54556;BME280;57291;37.520;15.106;2023-04-19T11:09:34;101188.53;;;17.25;61.96
54556;BME280;57291;37.520;15.106;2023-04-19T11:12:06;101184.16;;;17.24;61.33
54556;BME280;57291;37.520;15.106;2023-04-19T11:17:21;101189.69;;;17.53;60.27
54556;BME280;57291;37.520;15.106;2023-04-19T11:22:35;101177.91;;;17.53;59.17
54556;BME280;57291;37.520;15.106;2023-04-19T11:25:15;101170.16;;;17.46;60.30
54556;BME280;57291;37.520;15.106;2023-04-19T11:27:46;101164.38;;;17.39;60.68
54556;BME280;57291;37.520;15.106;2023-04-19T11:30:16;101160.88;;;17.30;59.96
54556;BME280;57291;37.520;15.106;2023-04-19T11:32:47;101159.13;;;17.25;61.04
54556;BME280;57291;37.520;15.106;2023-04-19T11:35:18;101155.63;;;17.07;61.81
54556;BME280;57291;37.520;15.106;2023-04-19T11:37:45;101162.03;;;17.20;62.72
54556;BME280;57291;37.520;15.106;2023-04-19T11:40:17;101151.72;;;17.17;63.05
54556;BME280;57291;37.520;15.106;2023-04-19T11:42:45;101150.28;;;17.49;61.02
54556;BME280;57291;37.520;15.106;2023-04-19T11:45:26;101149.13;;;17.80;59.80
54556;BME280;57291;37.520;15.106;2023-04-19T11:48:01;101148.59;;;17.87;61.06
54556;BME280;57291;37.520;15.106;2023-04-19T11:53:17;101148.94;;;17.55;60.54
54556;BME280;57291;37.520;15.106;2023-04-19T11:55:55;101153.94;;;17.62;60.48
54556;BME280;57291;37.520;15.106;2023-04-19T12:01:06;101147.22;;;18.01;60.36
54556;BME280;57291;37.520;15.106;2023-04-19T12:03:39;101152.66;;;18.31;59.36
54556;BME280;57291;37.520;15.106;2023-04-19T12:06:11;101155.28;;;18.07;59.91
54556;BME280;57291;37.520;15.106;2023-04-19T12:08:44;101166.84;;;17.32;61.14
54556;BME280;57291;37.520;15.106;2023-04-19T12:11:14;101167.88;;;17.19;62.35
54556;BME280;57291;37.520;15.106;2023-04-19T12:13:41;101162.88;;;17.50;62.17
54556;BME280;57291;37.520;15.106;2023-04-19T12:16:10;101172.13;;;17.46;61.97
54556;BME280;57291;37.520;15.106;2023-04-19T12:18:46;101164.50;;;17.51;63.28
54556;BME280;57291;37.520;15.106;2023-04-19T12:21:28;101176.53;;;17.68;61.70
54556;BME280;57291;37.520;15.106;2023-04-19T12:23:58;101175.03;;;17.79;61.30
54556;BME280;57291;37.520;15.106;2023-04-19T12:26:27;101169.38;;;17.75;61.98
54556;BME280;57291;37.520;15.106;2023-04-19T12:28:55;101158.09;;;17.68;61.35
54556;BME280;57291;37.520;15.106;2023-04-19T12:31:23;101163.59;;;17.68;60.98
54556;BME280;57291;37.520;15.106;2023-04-19T12:33:50;101165.16;;;17.48;61.11
54556;BME280;57291;37.520;15.106;2023-04-19T12:36:18;101171.53;;;17.31;62.98
54556;BME280;57291;37.520;15.106;2023-04-19T12:38:45;101154.34;;;17.43;61.72
54556;BME280;57291;37.520;15.106;2023-04-19T12:41:12;101157.44;;;17.42;61.98
54556;BME280;57291;37.520;15.106;2023-04-19T12:43:39;101152.63;;;17.59;61.22
54556;BME280;57291;37.520;15.106;2023-04-19T12:46:06;101150.56;;;17.56;62.27
54556;BME280;57291;37.520;15.106;2023-04-19T12:48:34;101142.41;;;17.69;60.75
54556;BME280;57291;37.520;15.106;2023-04-19T12:51:01;101147.63;;;17.91;60.96
54556;BME280;57291;37.520;15.106;2023-04-19T12:53:28;101148.38;;;18.00;59.87
54556;BME280;57291;37.520;15.106;2023-04-19T12:55:55;101148.31;;;17.50;61.62
54556;BME280;57291;37.520;15.106;2023-04-19T12:58:22;101141.41;;;17.44;62.72
54556;BME280;57291;37.520;15.106;2023-04-19T13:00:49;101136.78;;;17.65;62.87
54556;BME280;57291;37.520;15.106;2023-04-19T13:03:17;101141.88;;;17.75;62.56
54556;BME280;57291;37.520;15.106;2023-04-19T13:05:44;101136.91;;;17.69;62.27
54556;BME280;57291;37.520;15.106;2023-04-19T13:08:11;101141.13;;;17.66;62.00
54556;BME280;57291;37.520;15.106;2023-04-19T13:10:38;101130.25;;;17.70;62.71
54556;BME280;57291;37.520;15.106;2023-04-19T13:13:05;101134.97;;;17.69;61.95